Time;durP1;ratioP1;P1;durP2;ratioP2;P2;SDS_P1;SDS_P2;PMS_P1;PMS_P2;Temp;Humidity;BMP_temperature;BMP_pressure;BME280_temperature;BME280_humidity;BME280_pressure;Samples;Min_cycle;Max_cycle;Signal;HPM_P1;HPM_P2
2021/07/19 00:02:16;;;;;;;7.15;3.97;;;22.80;68.30;;;;;;5186507;27;27433;-54
2021/07/19 00:05:04;;;;;;;5.80;4.45;;;22.80;68.50;;;;;;5187412;27;27346;-54
2021/07/19 00:07:52;;;;;;;3.75;3.28;;;22.70;68.40;;;;;;5187416;27;27466;-56
2021/07/19 00:10:39;;;;;;;6.25;3.70;;;22.70;68.20;;;;;;5186808;27;27410;-53
2021/07/19 00:13:28;;;;;;;4.68;3.53;;;22.70;68.40;;;;;;5186106;27;27418;-55
2021/07/19 00:16:15;;;;;;;7.28;4.65;;;22.60;68.70;;;;;;5157057;27;27864;-51
2021/07/19 00:19:04;;;;;;;8.20;4.40;;;22.60;68.70;;;;;;5186884;27;27521;-54
2021/07/19 00:21:52;;;;;;;6.30;3.78;;;22.60;68.60;;;;;;5186895;27;27368;-52
2021/07/19 00:24:40;;;;;;;10.48;5.10;;;22.60;68.50;;;;;;5186499;27;27387;-55
2021/07/19 00:27:26;;;;;;;6.95;4.53;;;22.50;68.70;;;;;;5185896;27;27461;-57
2021/07/19 00:30:16;;;;;;;4.63;4.10;;;22.50;68.70;;;;;;5186132;27;27476;-58
2021/07/19 00:33:04;;;;;;;5.13;3.85;;;22.50;68.80;;;;;;5138853;27;27344;-54
2021/07/19 00:35:51;;;;;;;3.97;3.45;;;22.40;68.80;;;;;;5171457;27;27444;-55
2021/07/19 00:38:38;;;;;;;6.35;4.05;;;22.40;68.90;;;;;;5171076;27;27489;-54
2021/07/19 00:41:30;;;;;;;7.10;3.15;;;22.40;68.90;;;;;;5173500;27;27510;-53
2021/07/19 00:44:20;;;;;;;8.93;3.58;;;22.30;68.70;;;;;;5190576;27;27526;-51
2021/07/19 00:47:10;;;;;;;6.20;3.22;;;22.30;68.80;;;;;;5172162;27;27302;-53
2021/07/19 00:49:58;;;;;;;4.70;3.65;;;22.30;69.00;;;;;;5175497;27;27979;-55
2021/07/19 00:52:45;;;;;;;7.30;3.35;;;22.20;68.80;;;;;;5189179;27;27408;-54
2021/07/19 00:55:38;;;;;;;4.97;3.47;;;22.20;68.80;;;;;;5189236;27;27378;-53
2021/07/19 00:58:27;;;;;;;5.80;3.70;;;22.20;69.10;;;;;;5172142;27;27436;-54
2021/07/19 01:01:15;;;;;;;5.57;4.25;;;22.10;69.10;;;;;;5156421;27;27934;-54
2021/07/19 01:04:04;;;;;;;4.70;3.55;;;22.10;69.20;;;;;;5143021;27;27477;-51
2021/07/19 01:06:55;;;;;;;6.05;4.07;;;22.10;69.00;;;;;;5189429;27;27338;-54
2021/07/19 01:09:44;;;;;;;6.13;3.53;;;22.00;69.00;;;;;;5189867;27;27453;-55
2021/07/19 01:12:31;;;;;;;6.57;3.33;;;22.00;69.00;;;;;;5189105;27;27330;-50
2021/07/19 01:15:28;;;;;;;8.73;4.15;;;22.00;69.30;;;;;;5188795;27;27481;-55
2021/07/19 01:18:17;;;;;;;5.18;3.90;;;22.00;69.20;;;;;;5170847;27;27401;-55
2021/07/19 01:21:22;;;;;;;4.78;3.45;;;21.90;68.90;;;;;;5174915;27;27376;-51
2021/07/19 01:24:13;;;;;;;5.15;3.13;;;21.80;69.00;;;;;;5189542;27;27919;-52
2021/07/19 01:27:38;;;;;;;4.63;3.30;;;21.80;69.20;;;;;;5189429;27;27477;-50
2021/07/19 01:30:31;;;;;;;4.72;3.38;;;21.80;69.30;;;;;;5189411;27;27443;-52
2021/07/19 01:33:18;;;;;;;4.80;3.60;;;21.80;69.50;;;;;;5189211;27;27399;-53
2021/07/19 01:36:06;;;;;;;4.30;3.17;;;21.70;70.20;;;;;;5188590;27;27976;-53
2021/07/19 01:38:55;;;;;;;3.70;3.08;;;21.70;69.40;;;;;;5174141;27;27498;-53
2021/07/19 01:41:43;;;;;;;3.90;3.50;;;21.70;69.50;;;;;;5185194;27;27368;-53
2021/07/19 01:44:30;;;;;;;7.22;3.40;;;21.70;69.30;;;;;;5188694;27;27486;-51
2021/07/19 01:47:18;;;;;;;4.57;3.38;;;21.60;69.40;;;;;;5188244;27;27482;-53
2021/07/19 01:50:10;;;;;;;5.45;3.67;;;21.60;69.50;;;;;;5188630;27;27334;-55
2021/07/19 01:53:33;;;;;;;5.47;3.53;;;21.60;69.30;;;;;;5187569;27;27421;-55
2021/07/19 01:56:21;;;;;;;5.85;3.38;;;21.50;69.30;;;;;;5173966;27;27626;-53
2021/07/19 01:59:10;;;;;;;8.40;3.35;;;21.50;69.50;;;;;;5185031;27;27917;-53
2021/07/19 02:02:07;;;;;;;3.83;2.90;;;21.50;69.40;;;;;;5187600;27;27331;-54
2021/07/19 02:04:56;;;;;;;5.13;3.28;;;21.40;69.40;;;;;;5170346;27;27471;-53
2021/07/19 02:07:43;;;;;;;11.77;3.60;;;21.40;69.40;;;;;;5187913;27;27479;-53
2021/07/19 02:10:34;;;;;;;7.25;4.03;;;21.40;69.30;;;;;;5174078;27;27963;-53
2021/07/19 02:13:30;;;;;;;3.97;2.70;;;21.40;69.20;;;;;;5174098;27;27416;-54
2021/07/19 02:16:22;;;;;;;7.28;3.50;;;21.30;69.20;;;;;;5174668;27;27430;-52
2021/07/19 02:19:10;;;;;;;4.70;3.10;;;21.30;69.30;;;;;;5188950;27;27368;-54
2021/07/19 02:21:57;;;;;;;3.85;3.25;;;21.30;69.40;;;;;;5188766;27;28053;-54
2021/07/19 02:24:59;;;;;;;8.90;3.47;;;21.30;69.40;;;;;;5175415;27;27343;-52
2021/07/19 02:27:53;;;;;;;5.22;2.58;;;21.20;69.40;;;;;;5173361;27;27385;-51
2021/07/19 02:30:41;;;;;;;7.32;3.15;;;21.20;69.50;;;;;;5173667;27;27490;-52
2021/07/19 02:33:30;;;;;;;3.70;2.78;;;21.20;69.50;;;;;;5187633;27;27451;-52
2021/07/19 02:36:17;;;;;;;4.30;2.90;;;21.10;69.40;;;;;;5188355;27;27383;-52
2021/07/19 02:39:07;;;;;;;4.95;2.97;;;21.10;69.40;;;;;;5173448;27;27498;-55
2021/07/19 02:42:02;;;;;;;5.28;3.03;;;21.10;69.40;;;;;;5173653;27;26927;-53
2021/07/19 02:44:50;;;;;;;6.25;2.70;;;21.10;69.50;;;;;;5173847;27;27323;-54
2021/07/19 02:48:00;;;;;;;4.43;2.88;;;21.00;69.50;;;;;;5164012;27;27421;-52
2021/07/19 02:50:59;;;;;;;5.95;2.92;;;21.00;69.50;;;;;;5158362;27;27492;-55
2021/07/19 02:53:48;;;;;;;4.32;3.00;;;20.90;69.40;;;;;;5186981;27;27365;-55
2021/07/19 02:56:38;;;;;;;6.35;3.03;;;20.90;69.70;;;;;;5144224;27;27499;-54
2021/07/19 02:59:30;;;;;;;4.68;2.80;;;20.90;70.00;;;;;;5169437;27;27543;-55
2021/07/19 03:02:22;;;;;;;8.60;2.85;;;20.90;69.70;;;;;;5156433;27;27450;-54
2021/07/19 03:05:10;;;;;;;3.88;3.15;;;20.90;69.80;;;;;;5172651;27;27372;-54
2021/07/19 03:07:58;;;;;;;3.47;2.72;;;20.90;69.90;;;;;;5187129;27;27478;-57
2021/07/19 03:11:15;;;;;;;10.18;2.85;;;20.80;69.80;;;;;;5183813;27;27399;-56
2021/07/19 03:14:12;;;;;;;7.00;3.17;;;20.80;69.80;;;;;;5172547;27;27426;-53
2021/07/19 03:17:01;;;;;;;8.35;4.18;;;20.80;69.90;;;;;;5155451;27;27334;-55
2021/07/19 03:19:50;;;;;;;6.25;3.22;;;20.80;69.80;;;;;;5183518;27;27406;-49
2021/07/19 03:22:40;;;;;;;8.30;3.15;;;20.70;69.70;;;;;;5172351;27;27468;-51
2021/07/19 03:25:52;;;;;;;6.03;3.45;;;20.70;69.70;;;;;;5186921;27;27408;-53
2021/07/19 03:28:39;;;;;;;5.75;3.30;;;20.70;69.80;;;;;;5186770;27;27341;-50
2021/07/19 03:31:28;;;;;;;3.88;3.00;;;20.70;69.90;;;;;;5172104;27;27508;-52
2021/07/19 03:34:16;;;;;;;5.18;2.70;;;20.60;70.00;;;;;;5182824;27;27372;-50
2021/07/19 03:37:05;;;;;;;5.15;3.28;;;20.60;69.70;;;;;;5158292;27;27420;-51
2021/07/19 03:39:54;;;;;;;5.93;3.35;;;20.60;70.00;;;;;;5168810;27;27471;-52
2021/07/19 03:42:45;;;;;;;7.20;3.38;;;20.60;70.20;;;;;;5158096;27;27337;-51
2021/07/19 03:45:34;;;;;;;6.50;3.60;;;20.60;70.00;;;;;;5182782;27;27501;-51
2021/07/19 03:48:24;;;;;;;5.53;3.20;;;20.60;70.00;;;;;;5187177;27;27377;-49
2021/07/19 03:51:12;;;;;;;5.03;3.33;;;20.60;70.20;;;;;;5186757;27;27455;-52
2021/07/19 03:54:04;;;;;;;3.58;3.28;;;20.60;70.30;;;;;;5187041;27;27440;-55
2021/07/19 03:56:53;;;;;;;8.38;3.70;;;20.60;70.30;;;;;;5186253;27;27502;-53
2021/07/19 03:59:41;;;;;;;6.15;3.85;;;20.50;70.30;;;;;;5187199;27;27405;-55
2021/07/19 04:02:36;;;;;;;4.18;3.10;;;20.50;70.40;;;;;;5185537;27;27419;-50
2021/07/19 04:05:24;;;;;;;6.68;3.75;;;20.50;70.40;;;;;;5182918;27;27870;-52
2021/07/19 04:08:40;;;;;;;4.15;3.13;;;20.50;70.70;;;;;;5182972;27;27509;-54
2021/07/19 04:11:29;;;;;;;6.18;3.10;;;20.50;70.70;;;;;;5158931;27;27445;-51
2021/07/19 04:14:24;;;;;;;6.45;3.60;;;20.50;70.90;;;;;;5185720;27;27478;-53
2021/07/19 04:17:13;;;;;;;3.70;3.13;;;20.50;70.80;;;;;;5171079;27;27421;-53
2021/07/19 04:20:07;;;;;;;5.45;3.42;;;20.50;70.90;;;;;;5170935;27;27477;-50
2021/07/19 04:22:57;;;;;;;6.20;3.30;;;20.50;71.00;;;;;;5154844;27;27413;-53
2021/07/19 04:25:50;;;;;;;7.95;4.15;;;20.50;71.00;;;;;;5182383;27;27537;-49
2021/07/19 04:28:40;;;;;;;6.78;3.63;;;20.50;70.90;;;;;;5186484;27;27457;-54
2021/07/19 04:31:32;;;;;;;23.67;4.20;;;20.50;71.00;;;;;;5171282;27;27472;-51
2021/07/19 04:34:30;;;;;;;6.20;3.80;;;20.50;71.00;;;;;;5185417;27;27338;-50
2021/07/19 04:37:23;;;;;;;6.03;3.80;;;20.50;71.00;;;;;;5172488;27;27434;-49
2021/07/19 04:40:16;;;;;;;7.85;3.20;;;20.50;71.10;;;;;;5182047;27;27399;-54
2021/07/19 04:43:04;;;;;;;6.50;3.50;;;20.50;71.20;;;;;;5171537;27;27486;-53
2021/07/19 04:45:52;;;;;;;4.50;3.78;;;20.50;71.20;;;;;;5182541;27;27392;-51
2021/07/19 04:48:39;;;;;;;6.35;3.67;;;20.50;71.40;;;;;;5185477;27;27388;-53
2021/07/19 04:51:28;;;;;;;7.10;3.42;;;20.50;71.60;;;;;;5186573;27;27446;-53
2021/07/19 04:54:27;;;;;;;6.57;3.33;;;20.40;71.70;;;;;;5185341;27;27478;-55
2021/07/19 04:57:18;;;;;;;6.47;4.00;;;20.40;71.90;;;;;;5185849;27;27457;-52
2021/07/19 05:00:07;;;;;;;5.05;3.40;;;20.40;72.00;;;;;;5153305;27;27421;-51
2021/07/19 05:02:56;;;;;;;10.68;3.90;;;20.40;72.10;;;;;;5184461;27;27490;-54
2021/07/19 05:05:43;;;;;;;7.47;3.63;;;20.40;72.30;;;;;;5186140;27;27470;-53
2021/07/19 05:08:31;;;;;;;4.80;3.40;;;20.40;72.40;;;;;;5170788;27;27458;-49
2021/07/19 05:11:24;;;;;;;4.97;3.28;;;20.40;72.40;;;;;;5186002;27;27350;-51
2021/07/19 05:14:12;;;;;;;6.40;3.58;;;20.40;72.70;;;;;;5170453;27;27398;-52
2021/07/19 05:17:02;;;;;;;5.57;3.40;;;20.40;72.80;;;;;;5185110;27;27424;-57
2021/07/19 05:19:51;;;;;;;3.58;2.92;;;20.40;72.90;;;;;;5152990;27;27481;-57
2021/07/19 05:22:39;;;;;;;5.00;2.78;;;20.40;73.00;;;;;;5185194;27;27369;-55
2021/07/19 05:25:32;;;;;;;5.95;3.67;;;20.50;73.30;;;;;;5170716;27;27551;-53
2021/07/19 05:28:20;;;;;;;6.15;3.33;;;20.50;73.40;;;;;;5155996;27;27355;-52
2021/07/19 05:31:08;;;;;;;7.00;3.17;;;20.50;73.50;;;;;;5189556;27;27417;-52
2021/07/19 05:33:55;;;;;;;6.65;3.28;;;20.50;73.60;;;;;;5189544;27;27411;-53
2021/07/19 05:36:43;;;;;;;4.65;3.15;;;20.50;73.70;;;;;;5170524;27;27973;-56
2021/07/19 05:39:32;;;;;;;5.35;3.40;;;20.50;74.00;;;;;;5188599;27;27517;-56
2021/07/19 05:42:21;;;;;;;6.65;4.75;;;20.50;74.10;;;;;;5189012;27;27444;-54
2021/07/19 05:45:12;;;;;;;6.78;4.65;;;20.50;74.20;;;;;;5189694;27;27338;-56
2021/07/19 05:48:03;;;;;;;9.40;4.90;;;20.60;74.40;;;;;;5190219;27;27485;-53
2021/07/19 05:50:53;;;;;;;7.25;4.50;;;20.60;74.60;;;;;;5189383;27;27584;-55
2021/07/19 05:53:50;;;;;;;6.55;4.35;;;20.60;74.70;;;;;;5189983;27;27487;-55
2021/07/19 05:56:39;;;;;;;7.45;3.90;;;20.60;74.90;;;;;;5175138;27;27370;-55
2021/07/19 05:59:32;;;;;;;7.15;4.10;;;20.70;75.20;;;;;;5160267;27;27433;-55
2021/07/19 06:02:45;;;;;;;10.57;4.40;;;20.70;75.40;;;;;;5188577;27;27496;-56
2021/07/19 06:05:44;;;;;;;6.32;3.88;;;20.80;75.50;;;;;;5165231;27;27497;-50
2021/07/19 06:08:47;;;;;;;5.65;4.15;;;20.90;75.50;;;;;;5172096;27;27399;-49
2021/07/19 06:11:43;;;;;;;8.70;4.63;;;21.00;75.50;;;;;;5185913;27;27424;-51
2021/07/19 06:14:32;;;;;;;6.40;4.68;;;21.10;74.90;;;;;;5189326;27;27554;-50
2021/07/19 06:17:20;;;;;;;5.45;4.57;;;21.20;74.30;;;;;;5170901;27;27421;-52
2021/07/19 06:20:30;;;;;;;7.97;4.82;;;21.30;74.30;;;;;;5189861;27;27310;-49
2021/07/19 06:23:27;;;;;;;5.45;3.95;;;21.50;74.80;;;;;;5185656;27;27470;-52
2021/07/19 06:30:17;;;;;;;5.72;4.18;;;21.80;75.40;;;;;;5189232;27;27320;-51
2021/07/19 06:33:07;;;;;;;5.72;3.53;;;22.10;74.40;;;;;;5188503;27;27478;-51
2021/07/19 06:35:58;;;;;;;7.63;4.43;;;22.30;73.80;;;;;;5188559;27;27322;-55
2021/07/19 06:38:51;;;;;;;9.07;4.13;;;22.50;74.20;;;;;;5188400;27;27470;-51
2021/07/19 06:41:42;;;;;;;7.68;4.57;;;22.60;73.70;;;;;;5174021;27;27480;-54
2021/07/19 06:44:59;;;;;;;7.15;4.15;;;22.80;73.00;;;;;;5189233;27;27322;-53
2021/07/19 06:48:02;;;;;;;6.40;3.80;;;23.00;72.80;;;;;;5189431;27;27523;-56
2021/07/19 06:50:54;;;;;;;6.00;4.40;;;23.10;72.80;;;;;;5174467;27;27552;-54
2021/07/19 06:53:49;;;;;;;8.57;4.18;;;23.40;72.80;;;;;;5159712;27;27343;-58
2021/07/19 06:56:48;;;;;;;6.95;3.92;;;23.50;72.90;;;;;;5187501;27;27612;-56
2021/07/19 06:59:50;;;;;;;6.90;4.32;;;23.70;73.00;;;;;;5159555;27;27447;-57
2021/07/19 07:02:42;;;;;;;6.55;3.80;;;23.80;73.00;;;;;;5187574;27;27402;-56
2021/07/19 07:05:34;;;;;;;4.65;3.30;;;23.90;72.70;;;;;;5188707;27;27433;-57
2021/07/19 07:08:24;;;;;;;8.07;3.80;;;24.10;73.40;;;;;;5173889;27;27479;-57
2021/07/19 07:11:21;;;;;;;6.32;3.78;;;24.30;73.30;;;;;;5188305;27;27851;-58
2021/07/19 07:14:11;;;;;;;5.13;3.80;;;24.40;73.20;;;;;;5188421;27;27429;-57
2021/07/19 07:17:04;;;;;;;5.07;4.05;;;24.50;73.70;;;;;;5188697;27;27404;-54
2021/07/19 07:19:56;;;;;;;4.85;3.10;;;24.60;72.90;;;;;;5173698;27;27470;-58
2021/07/19 07:22:53;;;;;;;4.38;3.65;;;24.80;72.50;;;;;;5174320;27;27473;-56
2021/07/19 07:25:46;;;;;;;7.50;3.90;;;24.90;72.60;;;;;;5188531;27;27395;-58
2021/07/19 07:28:51;;;;;;;5.65;3.33;;;25.10;72.30;;;;;;5173864;27;27363;-56
2021/07/19 07:31:38;;;;;;;4.55;3.58;;;25.20;73.00;;;;;;5173464;27;27379;-60
2021/07/19 07:34:31;;;;;;;4.88;3.80;;;25.40;72.50;;;;;;5186988;27;27871;-58
2021/07/19 07:37:19;;;;;;;4.55;3.88;;;25.50;71.70;;;;;;5184212;27;27388;-59
2021/07/19 07:40:21;;;;;;;4.95;2.88;;;25.60;71.40;;;;;;5187611;27;27474;-62
2021/07/19 07:43:22;;;;;;;8.10;3.85;;;25.80;71.80;;;;;;5187510;27;27417;-59
2021/07/19 07:46:43;;;;;;;4.18;3.78;;;26.00;71.40;;;;;;5187866;27;27450;-59
2021/07/19 07:49:36;;;;;;;5.20;3.45;;;26.10;71.40;;;;;;5187231;27;27440;-60
2021/07/19 07:52:40;;;;;;;5.63;4.20;;;26.30;70.60;;;;;;5186939;27;27384;-58
2021/07/19 07:55:32;;;;;;;4.55;3.88;;;26.50;70.70;;;;;;5187651;27;27385;-58
2021/07/19 07:58:45;;;;;;;7.32;4.18;;;26.70;70.90;;;;;;5173357;27;27340;-59
2021/07/19 08:01:43;;;;;;;8.10;3.83;;;26.90;71.00;;;;;;5183221;27;27512;-60
2021/07/19 08:04:36;;;;;;;5.43;4.35;;;27.10;70.30;;;;;;5188033;27;27459;-60
2021/07/19 08:07:26;;;;;;;4.78;4.10;;;27.30;69.20;;;;;;5188184;27;27523;-59
2021/07/19 08:10:22;;;;;;;5.05;3.83;;;27.50;68.10;;;;;;5140819;27;27338;-60
2021/07/19 08:13:12;;;;;;;10.57;3.95;;;27.70;68.90;;;;;;5172534;27;27484;-60
2021/07/19 08:16:03;;;;;;;4.22;3.60;;;27.80;67.80;;;;;;5187024;27;27475;-59
2021/07/19 08:18:59;;;;;;;5.25;3.80;;;28.00;67.90;;;;;;5187707;27;27405;-60
2021/07/19 08:22:00;;;;;;;7.28;3.75;;;28.30;67.40;;;;;;5187194;27;27466;-59
2021/07/19 08:24:57;;;;;;;5.20;3.75;;;28.50;66.90;;;;;;5186924;27;27338;-57
2021/07/19 08:27:51;;;;;;;4.95;3.95;;;28.60;66.70;;;;;;5172272;27;27347;-59
2021/07/19 08:30:46;;;;;;;5.28;3.92;;;28.80;67.70;;;;;;5187939;27;27378;-59
2021/07/19 08:33:42;;;;;;;3.83;3.35;;;28.90;65.50;;;;;;5186601;27;27376;-59
2021/07/19 08:36:41;;;;;;;9.88;3.88;;;29.10;68.30;;;;;;5173039;27;27425;-56
2021/07/19 08:39:33;;;;;;;7.00;4.15;;;29.20;65.80;;;;;;5172397;27;27467;-56
2021/07/19 08:42:22;;;;;;;5.85;4.20;;;29.40;66.30;;;;;;5187812;27;27389;-57
2021/07/19 08:45:18;;;;;;;5.82;3.60;;;29.50;65.30;;;;;;5187446;27;27366;-57
2021/07/19 08:48:11;;;;;;;5.00;3.35;;;29.70;64.70;;;;;;5187438;27;27361;-57
2021/07/19 08:51:25;;;;;;;4.90;4.28;;;29.90;65.00;;;;;;5187474;27;27483;-57
2021/07/19 08:54:32;;;;;;;6.07;3.53;;;30.10;64.60;;;;;;5149374;27;27403;-57
2021/07/19 08:57:34;;;;;;;10.05;4.18;;;30.20;64.10;;;;;;5150211;27;27523;-57
2021/07/19 09:00:27;;;;;;;4.15;3.22;;;30.40;64.60;;;;;;5135975;27;27498;-56
2021/07/19 09:03:19;;;;;;;4.93;3.40;;;30.40;64.10;;;;;;5166861;27;27432;-57
2021/07/19 09:06:17;;;;;;;4.47;3.33;;;30.30;63.30;;;;;;5153545;27;27402;-57
2021/07/19 09:09:09;;;;;;;6.82;3.42;;;30.00;64.30;;;;;;5127030;27;27934;-56
2021/07/19 09:12:05;;;;;;;4.45;3.28;;;29.60;65.40;;;;;;5139462;27;27436;-56
2021/07/19 09:15:00;;;;;;;3.45;3.13;;;29.20;64.80;;;;;;5153576;27;27490;-56
2021/07/19 09:17:58;;;;;;;4.80;3.40;;;28.80;67.40;;;;;;5125004;27;27480;-59
2021/07/19 09:20:53;;;;;;;3.60;3.30;;;28.50;67.80;;;;;;5150212;27;27871;-59
2021/07/19 09:23:48;;;;;;;5.45;3.85;;;28.60;68.30;;;;;;5153782;27;27504;-59
2021/07/19 09:27:34;;;;;;;7.22;3.33;;;28.90;68.80;;;;;;5138847;27;27368;-60
2021/07/19 09:30:29;;;;;;;4.75;4.10;;;29.30;68.00;;;;;;5167690;27;27512;-56
2021/07/19 09:33:22;;;;;;;4.75;3.53;;;29.70;68.10;;;;;;5138859;27;27493;-57
2021/07/19 09:36:59;;;;;;;5.22;3.22;;;30.00;66.60;;;;;;5153970;27;27391;-57
2021/07/19 09:39:53;;;;;;;5.13;3.53;;;30.40;67.10;;;;;;5150533;27;27528;-58
2021/07/19 09:42:51;;;;;;;5.82;2.75;;;30.90;68.80;;;;;;5167676;27;27481;-57
2021/07/19 09:45:41;;;;;;;4.30;3.28;;;31.30;67.60;;;;;;5167424;27;27848;-57
2021/07/19 09:48:47;;;;;;;6.70;3.45;;;31.60;65.30;;;;;;5166837;27;27506;-58
2021/07/19 09:52:14;;;;;;;4.72;2.95;;;31.80;64.90;;;;;;5189375;27;27432;-58
2021/07/19 09:55:32;;;;;;;3.60;3.30;;;32.10;66.30;;;;;;5190120;27;27451;-58
2021/07/19 09:58:29;;;;;;;4.22;3.05;;;32.40;65.30;;;;;;5189246;27;27338;-58
2021/07/19 10:01:43;;;;;;;4.47;2.97;;;32.40;61.90;;;;;;5171204;27;27379;-61
2021/07/19 10:04:59;;;;;;;4.45;2.92;;;32.10;61.60;;;;;;5157088;27;27398;-59
2021/07/19 10:07:55;;;;;;;6.03;3.28;;;31.80;61.20;;;;;;5168425;27;27390;-58
2021/07/19 10:10:48;;;;;;;3.25;2.83;;;31.80;61.10;;;;;;5168109;27;27326;-59
2021/07/19 10:13:49;;;;;;;4.13;3.10;;;31.90;63.20;;;;;;5166951;27;27481;-59
2021/07/19 10:16:45;;;;;;;5.18;3.10;;;32.00;63.10;;;;;;5167670;27;27644;-58
2021/07/19 10:19:42;;;;;;;4.30;2.70;;;32.20;65.00;;;;;;5155123;27;27334;-59
2021/07/19 10:22:34;;;;;;;5.85;3.38;;;32.40;65.70;;;;;;5167807;27;27382;-59
2021/07/19 10:25:25;;;;;;;6.13;3.25;;;32.70;65.20;;;;;;5153248;27;27502;-58
2021/07/19 10:28:15;;;;;;;4.60;3.13;;;32.90;62.90;;;;;;5168589;27;27367;-59
2021/07/19 10:31:52;;;;;;;5.75;3.03;;;32.80;62.10;;;;;;5167964;27;27404;-59
2021/07/19 10:35:16;;;;;;;3.47;3.00;;;32.90;61.60;;;;;;5187769;27;27499;-60
2021/07/19 10:38:33;;;;;;;8.23;3.45;;;33.10;63.90;;;;;;5187426;27;27497;-62
2021/07/19 10:41:26;;;;;;;8.45;3.25;;;33.10;62.70;;;;;;5169785;27;27479;-59
2021/07/19 10:44:27;;;;;;;6.22;2.75;;;32.80;61.20;;;;;;5187190;27;27511;-58
2021/07/19 10:47:23;;;;;;;3.45;2.92;;;32.50;60.20;;;;;;5159905;27;27480;-59
2021/07/19 10:50:44;;;;;;;6.35;3.30;;;32.20;59.80;;;;;;5187472;27;27524;-59
2021/07/19 10:54:10;;;;;;;9.23;3.45;;;32.10;60.90;;;;;;5158677;27;27546;-59
2021/07/19 10:57:21;;;;;;;4.13;3.03;;;32.30;62.00;;;;;;5187439;27;27463;-58
2021/07/19 11:00:28;;;;;;;4.55;3.13;;;32.60;64.10;;;;;;5170325;27;27522;-60
2021/07/19 11:03:18;;;;;;;4.80;3.33;;;32.80;62.30;;;;;;5159803;27;27469;-59
2021/07/19 11:06:11;;;;;;;4.40;2.88;;;32.80;62.20;;;;;;5173337;27;27489;-59
2021/07/19 11:09:06;;;;;;;3.97;2.83;;;32.90;61.80;;;;;;5173463;27;27433;-58
2021/07/19 11:12:13;;;;;;;3.13;2.75;;;33.10;61.60;;;;;;5186435;27;27417;-58
2021/07/19 11:15:10;;;;;;;3.85;3.42;;;33.00;60.10;;;;;;5187021;27;27420;-58
2021/07/19 11:18:30;;;;;;;6.15;3.30;;;33.00;62.10;;;;;;5158369;27;27596;-59
2021/07/19 11:21:34;;;;;;;4.85;3.38;;;33.10;62.00;;;;;;5187132;27;27414;-59
2021/07/19 11:24:57;;;;;;;3.47;2.78;;;33.20;62.20;;;;;;5157932;27;27588;-59
2021/07/19 11:27:50;;;;;;;8.30;3.40;;;33.20;60.80;;;;;;5168546;27;27351;-59
2021/07/19 11:31:03;;;;;;;6.28;3.17;;;33.20;62.40;;;;;;5152148;27;27596;-59
2021/07/19 11:34:14;;;;;;;5.20;3.08;;;32.90;60.00;;;;;;5166408;27;27479;-59
2021/07/19 11:37:11;;;;;;;4.63;2.90;;;32.80;60.10;;;;;;5166535;27;27396;-59
2021/07/19 11:40:03;;;;;;;4.45;3.35;;;32.80;62.30;;;;;;5166546;27;27468;-58
2021/07/19 11:43:25;;;;;;;3.22;2.92;;;32.80;62.10;;;;;;5167317;27;27463;-58
2021/07/19 11:46:29;;;;;;;6.47;2.95;;;32.80;61.80;;;;;;5156417;27;27496;-59
2021/07/19 11:49:25;;;;;;;5.57;2.80;;;32.90;62.30;;;;;;5149597;27;27472;-58
2021/07/19 11:52:23;;;;;;;7.70;2.70;;;33.00;62.00;;;;;;5166552;27;27413;-59
2021/07/19 11:55:14;;;;;;;3.20;2.60;;;33.10;61.90;;;;;;5166404;27;27417;-59
2021/07/19 11:58:19;;;;;;;4.78;2.65;;;33.20;60.90;;;;;;5166226;27;27464;-60
2021/07/19 12:01:09;;;;;;;3.20;2.50;;;33.30;61.90;;;;;;5166104;27;27466;-59
2021/07/19 12:04:07;;;;;;;3.97;2.22;;;33.40;62.20;;;;;;5187755;27;27421;-61
2021/07/19 12:07:05;;;;;;;2.70;2.50;;;33.40;62.30;;;;;;5172795;27;27407;-59
2021/07/19 12:10:08;;;;;;;4.60;2.45;;;33.40;61.90;;;;;;5169535;27;27446;-63
2021/07/19 12:13:16;;;;;;;5.80;2.55;;;33.40;61.50;;;;;;5183506;27;27464;-59
2021/07/19 12:20:16;;;;;;;2.97;2.38;;;33.40;62.60;;;;;;5184490;27;27459;-59
2021/07/19 12:23:08;;;;;;;4.70;2.55;;;33.50;63.20;;;;;;5168986;27;27398;-59
2021/07/19 12:26:10;;;;;;;7.10;3.33;;;33.60;61.60;;;;;;5172533;27;27854;-58
2021/07/19 12:29:27;;;;;;;5.30;2.47;;;33.60;61.30;;;;;;5173141;27;27476;-59
2021/07/19 12:32:18;;;;;;;3.00;2.17;;;33.60;61.60;;;;;;5187589;27;27421;-59
2021/07/19 12:35:29;;;;;;;6.43;2.20;;;33.70;61.10;;;;;;5172315;27;27481;-59
2021/07/19 12:38:27;;;;;;;2.45;2.13;;;33.60;60.90;;;;;;5162928;27;27460;-59
2021/07/19 12:41:21;;;;;;;5.32;2.67;;;33.60;62.20;;;;;;5161959;27;27460;-60
2021/07/19 12:44:15;;;;;;;2.83;2.17;;;33.50;62.10;;;;;;5162108;27;27434;-59
2021/07/19 12:47:06;;;;;;;3.17;2.15;;;33.40;62.20;;;;;;5191155;27;27456;-58
2021/07/19 12:54:04;;;;;;;3.50;2.10;;;33.00;57.10;;;;;;5190686;27;27489;-59
2021/07/19 12:57:04;;;;;;;2.92;1.90;;;32.80;58.30;;;;;;5161636;27;27395;-58
2021/07/19 12:59:57;;;;;;;3.35;2.03;;;32.70;58.20;;;;;;5190977;27;27461;-59
2021/07/19 13:03:14;;;;;;;2.95;2.13;;;32.70;58.00;;;;;;5187941;27;27942;-61
2021/07/19 13:06:10;;;;;;;2.78;2.55;;;32.60;60.00;;;;;;5172314;27;27515;-59
2021/07/19 13:09:33;;;;;;;4.00;1.92;;;32.60;60.30;;;;;;5190201;27;27325;-59
2021/07/19 13:12:26;;;;;;;5.15;2.17;;;32.50;61.00;;;;;;5190317;27;27455;-59
2021/07/19 13:15:27;;;;;;;3.00;1.90;;;32.50;61.50;;;;;;5190180;27;27399;-59
2021/07/19 13:18:46;;;;;;;3.65;2.17;;;32.50;60.90;;;;;;5189971;27;27450;-59
2021/07/19 13:21:46;;;;;;;4.13;2.20;;;32.50;62.10;;;;;;5190649;27;27421;-58
2021/07/19 13:24:48;;;;;;;3.00;2.22;;;32.60;60.90;;;;;;5176482;27;27482;-60
2021/07/19 13:27:58;;;;;;;4.47;2.10;;;32.60;60.70;;;;;;5175639;27;27471;-59
2021/07/19 13:30:50;;;;;;;5.72;2.08;;;32.60;60.00;;;;;;5189398;27;27546;-59
2021/07/19 13:33:55;;;;;;;2.08;1.63;;;32.60;59.90;;;;;;5190343;27;27504;-58
2021/07/19 13:36:48;;;;;;;5.88;1.73;;;32.40;59.50;;;;;;5186467;27;27486;-59
2021/07/19 13:39:59;;;;;;;3.45;1.98;;;32.30;58.30;;;;;;5175442;27;27372;-59
2021/07/19 13:43:00;;;;;;;3.33;2.45;;;32.20;58.60;;;;;;5190558;27;27382;-58
2021/07/19 13:46:09;;;;;;;3.78;1.90;;;32.10;47.10;;;;;;5176381;27;27482;-58
2021/07/19 13:49:04;;;;;;;2.35;1.92;;;32.00;52.30;;;;;;5166230;27;27474;-60
2021/07/19 13:52:05;;;;;;;2.90;2.10;;;31.80;55.60;;;;;;5157411;27;27406;-59
2021/07/19 13:54:59;;;;;;;3.45;2.35;;;31.60;56.30;;;;;;5190219;27;27303;-58
2021/07/19 13:58:01;;;;;;;3.10;1.83;;;31.60;59.00;;;;;;5190327;27;27558;-58
2021/07/19 14:01:07;;;;;;;3.78;1.95;;;31.60;60.80;;;;;;5186102;27;27338;-59
2021/07/19 14:04:06;;;;;;;2.67;2.10;;;31.60;60.90;;;;;;5173668;27;27867;-58
2021/07/19 14:06:57;;;;;;;2.67;2.42;;;31.70;62.10;;;;;;5190005;27;27390;-58
2021/07/19 14:09:49;;;;;;;3.50;1.65;;;31.80;61.10;;;;;;5175150;27;27322;-58
2021/07/19 14:12:46;;;;;;;2.55;1.80;;;31.80;60.90;;;;;;5189133;27;27322;-58
2021/07/19 14:16:21;;;;;;;2.17;1.70;;;31.70;61.00;;;;;;5180748;27;27357;-58
2021/07/19 14:19:15;;;;;;;2.38;1.85;;;31.50;59.90;;;;;;5190083;27;27466;-58
2021/07/19 14:22:14;;;;;;;10.02;2.50;;;31.40;58.00;;;;;;5189358;27;27475;-58
2021/07/19 14:25:04;;;;;;;3.55;1.63;;;31.30;58.70;;;;;;5188995;27;27433;-58
2021/07/19 14:28:13;;;;;;;4.10;2.03;;;31.20;58.30;;;;;;5185392;27;27891;-58
2021/07/19 14:31:17;;;;;;;4.47;2.17;;;31.10;59.70;;;;;;5173379;27;27468;-58
2021/07/19 14:34:10;;;;;;;6.63;1.95;;;31.20;62.50;;;;;;5188471;27;27349;-58
2021/07/19 14:37:01;;;;;;;2.67;2.00;;;31.30;61.80;;;;;;5174375;27;27412;-58
2021/07/19 14:40:17;;;;;;;5.07;2.10;;;31.40;61.60;;;;;;5189284;27;27495;-58
2021/07/19 14:43:29;;;;;;;2.20;1.70;;;31.60;60.90;;;;;;5188566;27;27453;-58
2021/07/19 14:46:30;;;;;;;2.75;1.88;;;31.60;61.30;;;;;;5175113;27;27418;-59
2021/07/19 14:50:32;;;;;;;2.60;1.80;;;31.70;61.10;;;;;;5173116;27;27523;-59
2021/07/19 14:53:56;;;;;;;2.03;1.83;;;31.70;59.70;;;;;;5188591;27;27490;-60
2021/07/19 14:56:50;;;;;;;4.93;1.77;;;31.80;59.00;;;;;;5188425;27;27522;-59
2021/07/19 14:59:43;;;;;;;3.33;1.52;;;31.80;58.70;;;;;;5188607;27;27488;-58
2021/07/19 15:02:41;;;;;;;6.28;2.00;;;31.80;57.20;;;;;;5185562;27;27408;-58
2021/07/19 15:06:07;;;;;;;2.28;1.60;;;31.80;57.30;;;;;;5189015;27;27408;-58
2021/07/19 15:09:01;;;;;;;1.90;1.80;;;31.80;58.80;;;;;;5188016;27;27414;-59
2021/07/19 15:11:53;;;;;;;4.95;1.70;;;31.60;58.10;;;;;;5188035;27;27488;-58
2021/07/19 15:14:51;;;;;;;2.67;1.83;;;31.60;58.40;;;;;;5173642;27;27467;-59
2021/07/19 15:17:45;;;;;;;3.42;1.75;;;31.50;58.50;;;;;;5187819;27;27978;-60
2021/07/19 15:21:06;;;;;;;2.30;1.33;;;31.50;58.50;;;;;;5188068;27;27407;-58
2021/07/19 15:24:19;;;;;;;3.50;2.05;;;31.50;59.80;;;;;;5187728;27;27331;-59
2021/07/19 15:27:30;;;;;;;2.28;1.60;;;31.50;58.30;;;;;;5188398;27;27394;-58
2021/07/19 15:30:38;;;;;;;3.30;1.80;;;31.40;57.60;;;;;;5171678;27;27999;-59
2021/07/19 15:33:55;;;;;;;2.10;1.85;;;31.40;56.40;;;;;;5183815;27;27392;-58